sensor_id;sensor_type;location;lat;lon;timestamp;P1;durP1;ratioP1;P2;durP2;ratioP2
55483;SDS011;41345;51.704;5.146;2023-06-14T00:00:12;9.50;;;4.22;;
55483;SDS011;41345;51.704;5.146;2023-06-14T00:05:12;8.52;;;3.80;;
55483;SDS011;41345;51.704;5.146;2023-06-14T00:10:13;8.52;;;4.57;;
55483;SDS011;41345;51.704;5.146;2023-06-14T00:15:13;8.23;;;3.95;;
55483;SDS011;41345;51.704;5.146;2023-06-14T00:20:14;7.67;;;3.97;;
55483;SDS011;41345;51.704;5.146;2023-06-14T00:25:14;9.40;;;4.38;;
55483;SDS011;41345;51.704;5.146;2023-06-14T00:30:15;9.77;;;4.30;;
55483;SDS011;41345;51.704;5.146;2023-06-14T00:35:15;8.23;;;4.63;;
55483;SDS011;41345;51.704;5.146;2023-06-14T00:40:15;8.02;;;3.95;;
55483;SDS011;41345;51.704;5.146;2023-06-14T00:45:15;11.40;;;4.72;;
55483;SDS011;41345;51.704;5.146;2023-06-14T00:50:16;10.10;;;4.63;;
55483;SDS011;41345;51.704;5.146;2023-06-14T00:55:16;11.07;;;4.20;;
55483;SDS011;41345;51.704;5.146;2023-06-14T01:00:16;8.57;;;4.00;;
55483;SDS011;41345;51.704;5.146;2023-06-14T01:05:17;8.68;;;4.35;;
55483;SDS011;41345;51.704;5.146;2023-06-14T01:15:26;9.32;;;4.10;;
55483;SDS011;41345;51.704;5.146;2023-06-14T01:20:28;9.60;;;4.05;;
55483;SDS011;41345;51.704;5.146;2023-06-14T01:25:28;12.77;;;4.00;;
55483;SDS011;41345;51.704;5.146;2023-06-14T01:30:29;11.35;;;3.90;;
55483;SDS011;41345;51.704;5.146;2023-06-14T01:35:30;10.13;;;4.00;;
55483;SDS011;41345;51.704;5.146;2023-06-14T01:40:30;9.77;;;3.97;;
55483;SDS011;41345;51.704;5.146;2023-06-14T01:45:31;10.75;;;4.72;;
55483;SDS011;41345;51.704;5.146;2023-06-14T01:50:32;9.30;;;3.78;;
55483;SDS011;41345;51.704;5.146;2023-06-14T01:55:33;9.30;;;3.73;;
55483;SDS011;41345;51.704;5.146;2023-06-14T02:00:37;7.43;;;3.97;;
55483;SDS011;41345;51.704;5.146;2023-06-14T02:05:37;8.52;;;3.85;;
55483;SDS011;41345;51.704;5.146;2023-06-14T02:10:39;11.73;;;3.70;;
55483;SDS011;41345;51.704;5.146;2023-06-14T02:15:39;8.52;;;3.83;;
55483;SDS011;41345;51.704;5.146;2023-06-14T02:20:40;12.10;;;4.33;;
55483;SDS011;41345;51.704;5.146;2023-06-14T02:25:40;8.73;;;3.65;;
55483;SDS011;41345;51.704;5.146;2023-06-14T02:30:40;8.73;;;4.17;;
55483;SDS011;41345;51.704;5.146;2023-06-14T02:35:41;11.30;;;4.00;;
55483;SDS011;41345;51.704;5.146;2023-06-14T02:40:41;9.18;;;4.00;;
55483;SDS011;41345;51.704;5.146;2023-06-14T02:45:44;12.57;;;4.13;;
55483;SDS011;41345;51.704;5.146;2023-06-14T02:50:44;9.15;;;3.85;;
55483;SDS011;41345;51.704;5.146;2023-06-14T02:55:45;12.18;;;4.15;;
55483;SDS011;41345;51.704;5.146;2023-06-14T03:00:46;15.52;;;4.32;;
55483;SDS011;41345;51.704;5.146;2023-06-14T03:05:47;9.88;;;4.00;;
55483;SDS011;41345;51.704;5.146;2023-06-14T03:10:49;8.55;;;3.90;;
55483;SDS011;41345;51.704;5.146;2023-06-14T03:15:49;7.38;;;3.58;;
55483;SDS011;41345;51.704;5.146;2023-06-14T03:20:50;10.50;;;3.78;;
55483;SDS011;41345;51.704;5.146;2023-06-14T03:25:51;9.27;;;4.30;;
55483;SDS011;41345;51.704;5.146;2023-06-14T03:30:51;11.55;;;4.28;;
55483;SDS011;41345;51.704;5.146;2023-06-14T03:35:51;12.38;;;4.07;;
55483;SDS011;41345;51.704;5.146;2023-06-14T03:40:52;11.70;;;4.10;;
55483;SDS011;41345;51.704;5.146;2023-06-14T03:45:52;10.13;;;4.22;;
55483;SDS011;41345;51.704;5.146;2023-06-14T03:50:52;9.02;;;4.13;;
55483;SDS011;41345;51.704;5.146;2023-06-14T03:55:54;8.02;;;3.95;;
55483;SDS011;41345;51.704;5.146;2023-06-14T04:00:55;6.72;;;3.42;;
55483;SDS011;41345;51.704;5.146;2023-06-14T04:05:55;7.68;;;3.97;;
55483;SDS011;41345;51.704;5.146;2023-06-14T04:15:59;8.25;;;4.10;;
55483;SDS011;41345;51.704;5.146;2023-06-14T04:21:00;13.03;;;4.77;;
55483;SDS011;41345;51.704;5.146;2023-06-14T04:26:00;9.55;;;4.15;;
55483;SDS011;41345;51.704;5.146;2023-06-14T04:31:02;8.15;;;3.78;;
55483;SDS011;41345;51.704;5.146;2023-06-14T04:36:02;9.63;;;3.90;;
55483;SDS011;41345;51.704;5.146;2023-06-14T04:41:03;10.27;;;3.78;;
55483;SDS011;41345;51.704;5.146;2023-06-14T04:46:07;7.90;;;3.60;;
55483;SDS011;41345;51.704;5.146;2023-06-14T04:51:10;7.03;;;3.05;;
55483;SDS011;41345;51.704;5.146;2023-06-14T04:56:11;6.38;;;3.28;;
55483;SDS011;41345;51.704;5.146;2023-06-14T05:01:11;11.68;;;3.83;;
55483;SDS011;41345;51.704;5.146;2023-06-14T05:06:12;8.70;;;3.95;;
55483;SDS011;41345;51.704;5.146;2023-06-14T05:11:13;9.20;;;3.20;;
55483;SDS011;41345;51.704;5.146;2023-06-14T05:16:13;7.43;;;3.30;;
55483;SDS011;41345;51.704;5.146;2023-06-14T05:21:15;8.10;;;3.42;;
55483;SDS011;41345;51.704;5.146;2023-06-14T05:26:18;7.78;;;3.45;;
55483;SDS011;41345;51.704;5.146;2023-06-14T05:31:18;7.78;;;3.35;;
55483;SDS011;41345;51.704;5.146;2023-06-14T05:36:19;6.50;;;3.47;;
55483;SDS011;41345;51.704;5.146;2023-06-14T05:41:21;8.77;;;3.80;;
55483;SDS011;41345;51.704;5.146;2023-06-14T05:46:21;7.78;;;3.50;;
55483;SDS011;41345;51.704;5.146;2023-06-14T05:51:24;9.95;;;3.50;;
55483;SDS011;41345;51.704;5.146;2023-06-14T05:56:24;11.43;;;3.45;;
55483;SDS011;41345;51.704;5.146;2023-06-14T06:01:25;9.48;;;3.75;;
55483;SDS011;41345;51.704;5.146;2023-06-14T06:06:26;10.95;;;3.60;;
55483;SDS011;41345;51.704;5.146;2023-06-14T06:11:26;9.83;;;3.43;;
55483;SDS011;41345;51.704;5.146;2023-06-14T06:16:27;7.40;;;3.97;;
55483;SDS011;41345;51.704;5.146;2023-06-14T06:21:27;9.40;;;3.38;;
55483;SDS011;41345;51.704;5.146;2023-06-14T06:26:28;8.43;;;3.70;;
55483;SDS011;41345;51.704;5.146;2023-06-14T06:31:28;8.25;;;3.75;;
55483;SDS011;41345;51.704;5.146;2023-06-14T06:36:28;9.23;;;3.70;;
55483;SDS011;41345;51.704;5.146;2023-06-14T06:41:29;16.25;;;4.05;;
55483;SDS011;41345;51.704;5.146;2023-06-14T06:46:29;9.00;;;4.10;;
55483;SDS011;41345;51.704;5.146;2023-06-14T06:51:29;11.30;;;4.00;;
55483;SDS011;41345;51.704;5.146;2023-06-14T06:56:30;9.63;;;3.50;;
55483;SDS011;41345;51.704;5.146;2023-06-14T07:01:31;8.65;;;3.75;;
55483;SDS011;41345;51.704;5.146;2023-06-14T07:06:33;7.40;;;3.65;;
55483;SDS011;41345;51.704;5.146;2023-06-14T07:11:34;7.10;;;3.37;;
55483;SDS011;41345;51.704;5.146;2023-06-14T07:16:34;9.75;;;3.45;;
55483;SDS011;41345;51.704;5.146;2023-06-14T07:21:34;12.68;;;3.78;;
55483;SDS011;41345;51.704;5.146;2023-06-14T07:26:35;7.03;;;3.35;;
55483;SDS011;41345;51.704;5.146;2023-06-14T07:31:35;7.40;;;3.50;;
55483;SDS011;41345;51.704;5.146;2023-06-14T07:36:36;9.07;;;3.78;;
55483;SDS011;41345;51.704;5.146;2023-06-14T07:41:36;8.00;;;3.60;;
55483;SDS011;41345;51.704;5.146;2023-06-14T07:46:37;9.80;;;3.38;;
55483;SDS011;41345;51.704;5.146;2023-06-14T07:51:38;9.85;;;3.33;;
55483;SDS011;41345;51.704;5.146;2023-06-14T07:56:38;10.20;;;3.65;;
55483;SDS011;41345;51.704;5.146;2023-06-14T08:01:38;7.95;;;3.20;;
55483;SDS011;41345;51.704;5.146;2023-06-14T08:06:39;5.80;;;3.17;;
55483;SDS011;41345;51.704;5.146;2023-06-14T08:11:43;5.55;;;2.95;;
55483;SDS011;41345;51.704;5.146;2023-06-14T08:16:44;7.07;;;3.10;;
55483;SDS011;41345;51.704;5.146;2023-06-14T08:21:44;7.68;;;3.03;;
55483;SDS011;41345;51.704;5.146;2023-06-14T08:26:46;8.00;;;3.30;;
55483;SDS011;41345;51.704;5.146;2023-06-14T08:31:46;7.93;;;2.97;;
55483;SDS011;41345;51.704;5.146;2023-06-14T08:36:46;9.27;;;3.10;;
55483;SDS011;41345;51.704;5.146;2023-06-14T08:41:47;9.83;;;2.90;;
55483;SDS011;41345;51.704;5.146;2023-06-14T08:46:50;6.65;;;2.60;;
55483;SDS011;41345;51.704;5.146;2023-06-14T08:51:54;9.13;;;2.80;;
55483;SDS011;41345;51.704;5.146;2023-06-14T08:56:57;14.73;;;3.17;;
55483;SDS011;41345;51.704;5.146;2023-06-14T09:01:58;8.50;;;2.72;;
55483;SDS011;41345;51.704;5.146;2023-06-14T09:07:00;6.50;;;2.70;;
55483;SDS011;41345;51.704;5.146;2023-06-14T09:12:00;6.65;;;2.58;;
55483;SDS011;41345;51.704;5.146;2023-06-14T09:17:00;9.18;;;2.67;;
55483;SDS011;41345;51.704;5.146;2023-06-14T09:22:01;9.13;;;2.47;;
55483;SDS011;41345;51.704;5.146;2023-06-14T09:27:01;6.10;;;2.30;;
55483;SDS011;41345;51.704;5.146;2023-06-14T09:32:01;4.38;;;1.92;;
55483;SDS011;41345;51.704;5.146;2023-06-14T09:37:02;4.23;;;1.83;;
55483;SDS011;41345;51.704;5.146;2023-06-14T09:42:02;6.05;;;2.10;;
55483;SDS011;41345;51.704;5.146;2023-06-14T09:47:18;5.80;;;1.90;;
55483;SDS011;41345;51.704;5.146;2023-06-14T09:52:19;7.88;;;1.77;;
55483;SDS011;41345;51.704;5.146;2023-06-14T09:57:23;8.57;;;1.75;;
55483;SDS011;41345;51.704;5.146;2023-06-14T10:07:23;2.23;;;1.20;;
55483;SDS011;41345;51.704;5.146;2023-06-14T10:12:25;5.32;;;1.90;;
55483;SDS011;41345;51.704;5.146;2023-06-14T10:22:34;4.18;;;1.50;;
55483;SDS011;41345;51.704;5.146;2023-06-14T10:27:35;5.38;;;1.42;;
55483;SDS011;41345;51.704;5.146;2023-06-14T10:32:42;2.70;;;1.30;;
55483;SDS011;41345;51.704;5.146;2023-06-14T10:38:05;4.00;;;1.42;;
55483;SDS011;41345;51.704;5.146;2023-06-14T10:43:22;5.45;;;1.60;;
55483;SDS011;41345;51.704;5.146;2023-06-14T10:48:29;5.68;;;1.92;;
55483;SDS011;41345;51.704;5.146;2023-06-14T10:53:30;3.60;;;1.65;;
55483;SDS011;41345;51.704;5.146;2023-06-14T10:58:39;4.90;;;1.58;;
55483;SDS011;41345;51.704;5.146;2023-06-14T11:03:50;9.33;;;1.67;;
55483;SDS011;41345;51.704;5.146;2023-06-14T11:09:09;5.43;;;2.00;;
55483;SDS011;41345;51.704;5.146;2023-06-14T11:14:12;5.57;;;1.60;;
55483;SDS011;41345;51.704;5.146;2023-06-14T11:19:12;4.70;;;1.50;;
55483;SDS011;41345;51.704;5.146;2023-06-14T11:24:12;4.95;;;1.90;;
55483;SDS011;41345;51.704;5.146;2023-06-14T11:29:14;4.63;;;1.67;;
55483;SDS011;41345;51.704;5.146;2023-06-14T11:34:15;3.00;;;1.40;;
55483;SDS011;41345;51.704;5.146;2023-06-14T11:39:16;5.28;;;2.28;;
55483;SDS011;41345;51.704;5.146;2023-06-14T11:44:16;3.43;;;1.50;;
55483;SDS011;41345;51.704;5.146;2023-06-14T11:49:17;4.45;;;1.50;;
55483;SDS011;41345;51.704;5.146;2023-06-14T11:54:17;4.20;;;1.53;;
55483;SDS011;41345;51.704;5.146;2023-06-14T11:59:17;3.53;;;1.50;;
55483;SDS011;41345;51.704;5.146;2023-06-14T12:04:24;5.47;;;1.80;;
55483;SDS011;41345;51.704;5.146;2023-06-14T12:09:26;6.10;;;1.60;;
55483;SDS011;41345;51.704;5.146;2023-06-14T12:14:30;4.45;;;1.83;;
55483;SDS011;41345;51.704;5.146;2023-06-14T12:19:31;7.72;;;1.80;;
55483;SDS011;41345;51.704;5.146;2023-06-14T12:24:32;4.72;;;1.52;;
55483;SDS011;41345;51.704;5.146;2023-06-14T12:29:32;4.55;;;1.60;;
55483;SDS011;41345;51.704;5.146;2023-06-14T12:34:32;3.05;;;1.60;;
55483;SDS011;41345;51.704;5.146;2023-06-14T12:39:32;4.65;;;1.85;;
55483;SDS011;41345;51.704;5.146;2023-06-14T12:44:33;4.10;;;1.60;;
55483;SDS011;41345;51.704;5.146;2023-06-14T12:49:35;3.55;;;1.70;;
55483;SDS011;41345;51.704;5.146;2023-06-14T12:54:36;5.20;;;1.50;;
55483;SDS011;41345;51.704;5.146;2023-06-14T12:59:36;4.00;;;1.73;;
55483;SDS011;41345;51.704;5.146;2023-06-14T13:04:36;5.05;;;1.67;;
55483;SDS011;41345;51.704;5.146;2023-06-14T13:09:37;6.95;;;1.83;;
55483;SDS011;41345;51.704;5.146;2023-06-14T13:14:38;6.07;;;2.25;;
55483;SDS011;41345;51.704;5.146;2023-06-14T13:19:38;4.28;;;1.60;;
55483;SDS011;41345;51.704;5.146;2023-06-14T13:24:39;8.18;;;1.80;;
55483;SDS011;41345;51.704;5.146;2023-06-14T13:29:39;4.70;;;1.65;;
55483;SDS011;41345;51.704;5.146;2023-06-14T13:34:40;3.95;;;1.50;;
55483;SDS011;41345;51.704;5.146;2023-06-14T13:39:40;2.67;;;1.42;;
55483;SDS011;41345;51.704;5.146;2023-06-14T13:44:40;5.37;;;1.60;;
55483;SDS011;41345;51.704;5.146;2023-06-14T13:49:41;6.00;;;1.80;;
55483;SDS011;41345;51.704;5.146;2023-06-14T13:54:41;3.70;;;1.60;;
55483;SDS011;41345;51.704;5.146;2023-06-14T13:59:42;4.72;;;1.60;;
55483;SDS011;41345;51.704;5.146;2023-06-14T14:04:44;6.50;;;2.25;;
55483;SDS011;41345;51.704;5.146;2023-06-14T14:09:51;5.43;;;1.75;;
55483;SDS011;41345;51.704;5.146;2023-06-14T14:14:53;5.07;;;1.63;;
55483;SDS011;41345;51.704;5.146;2023-06-14T14:19:53;5.03;;;1.80;;
55483;SDS011;41345;51.704;5.146;2023-06-14T14:24:53;5.55;;;1.77;;
55483;SDS011;41345;51.704;5.146;2023-06-14T14:29:54;5.33;;;1.60;;
55483;SDS011;41345;51.704;5.146;2023-06-14T14:34:54;4.07;;;1.53;;
55483;SDS011;41345;51.704;5.146;2023-06-14T14:39:55;5.65;;;1.50;;
55483;SDS011;41345;51.704;5.146;2023-06-14T14:44:55;2.87;;;1.40;;
55483;SDS011;41345;51.704;5.146;2023-06-14T14:49:55;5.57;;;1.35;;
55483;SDS011;41345;51.704;5.146;2023-06-14T14:54:56;4.13;;;1.15;;
55483;SDS011;41345;51.704;5.146;2023-06-14T14:59:56;3.58;;;1.30;;
55483;SDS011;41345;51.704;5.146;2023-06-14T15:04:56;4.32;;;1.20;;
55483;SDS011;41345;51.704;5.146;2023-06-14T15:10:00;4.22;;;1.70;;
55483;SDS011;41345;51.704;5.146;2023-06-14T15:15:01;4.60;;;1.75;;
55483;SDS011;41345;51.704;5.146;2023-06-14T15:20:02;2.15;;;1.20;;
55483;SDS011;41345;51.704;5.146;2023-06-14T15:25:02;4.47;;;1.45;;
55483;SDS011;41345;51.704;5.146;2023-06-14T15:30:03;3.55;;;1.20;;
55483;SDS011;41345;51.704;5.146;2023-06-14T15:35:06;5.07;;;1.15;;
55483;SDS011;41345;51.704;5.146;2023-06-14T15:40:07;2.72;;;1.10;;
55483;SDS011;41345;51.704;5.146;2023-06-14T15:45:07;2.38;;;1.13;;
55483;SDS011;41345;51.704;5.146;2023-06-14T15:50:08;3.60;;;1.13;;
55483;SDS011;41345;51.704;5.146;2023-06-14T15:55:08;4.45;;;1.20;;
55483;SDS011;41345;51.704;5.146;2023-06-14T16:00:09;3.97;;;1.02;;
55483;SDS011;41345;51.704;5.146;2023-06-14T16:05:11;7.15;;;1.20;;
55483;SDS011;41345;51.704;5.146;2023-06-14T16:10:11;4.82;;;1.10;;
55483;SDS011;41345;51.704;5.146;2023-06-14T16:15:11;2.63;;;1.10;;
55483;SDS011;41345;51.704;5.146;2023-06-14T16:20:12;4.30;;;1.00;;
55483;SDS011;41345;51.704;5.146;2023-06-14T16:25:12;4.43;;;1.20;;
55483;SDS011;41345;51.704;5.146;2023-06-14T16:30:12;6.10;;;1.50;;
55483;SDS011;41345;51.704;5.146;2023-06-14T16:35:13;3.83;;;1.13;;
55483;SDS011;41345;51.704;5.146;2023-06-14T16:40:13;7.23;;;1.20;;
55483;SDS011;41345;51.704;5.146;2023-06-14T16:45:13;8.35;;;1.10;;
55483;SDS011;41345;51.704;5.146;2023-06-14T16:50:14;3.37;;;1.20;;
55483;SDS011;41345;51.704;5.146;2023-06-14T16:55:14;4.33;;;1.23;;
55483;SDS011;41345;51.704;5.146;2023-06-14T17:00:14;2.37;;;1.13;;
55483;SDS011;41345;51.704;5.146;2023-06-14T17:05:15;3.95;;;1.13;;
55483;SDS011;41345;51.704;5.146;2023-06-14T17:10:15;3.73;;;1.40;;
55483;SDS011;41345;51.704;5.146;2023-06-14T17:15:15;3.07;;;1.20;;
55483;SDS011;41345;51.704;5.146;2023-06-14T17:20:16;2.78;;;1.27;;
55483;SDS011;41345;51.704;5.146;2023-06-14T17:25:16;6.03;;;1.40;;
55483;SDS011;41345;51.704;5.146;2023-06-14T17:30:17;3.80;;;1.20;;
55483;SDS011;41345;51.704;5.146;2023-06-14T17:35:17;5.35;;;1.40;;
55483;SDS011;41345;51.704;5.146;2023-06-14T17:40:17;2.25;;;1.38;;
55483;SDS011;41345;51.704;5.146;2023-06-14T17:45:17;8.83;;;1.70;;
55483;SDS011;41345;51.704;5.146;2023-06-14T17:50:18;3.85;;;1.58;;
55483;SDS011;41345;51.704;5.146;2023-06-14T17:55:18;6.80;;;1.33;;
55483;SDS011;41345;51.704;5.146;2023-06-14T18:00:18;6.30;;;1.80;;
55483;SDS011;41345;51.704;5.146;2023-06-14T18:05:19;7.80;;;1.60;;
55483;SDS011;41345;51.704;5.146;2023-06-14T18:10:19;4.40;;;1.60;;
55483;SDS011;41345;51.704;5.146;2023-06-14T18:15:20;3.10;;;1.38;;
55483;SDS011;41345;51.704;5.146;2023-06-14T18:20:21;3.67;;;1.60;;
55483;SDS011;41345;51.704;5.146;2023-06-14T18:25:21;3.10;;;1.50;;
55483;SDS011;41345;51.704;5.146;2023-06-14T18:30:23;4.45;;;1.63;;
55483;SDS011;41345;51.704;5.146;2023-06-14T18:35:23;3.83;;;1.60;;
55483;SDS011;41345;51.704;5.146;2023-06-14T18:40:24;5.57;;;1.80;;
55483;SDS011;41345;51.704;5.146;2023-06-14T18:45:24;3.13;;;1.75;;
55483;SDS011;41345;51.704;5.146;2023-06-14T18:50:25;4.37;;;1.80;;
55483;SDS011;41345;51.704;5.146;2023-06-14T18:55:25;3.17;;;1.77;;
55483;SDS011;41345;51.704;5.146;2023-06-14T19:00:26;5.82;;;1.77;;
55483;SDS011;41345;51.704;5.146;2023-06-14T19:05:26;4.50;;;1.70;;
55483;SDS011;41345;51.704;5.146;2023-06-14T19:10:26;5.50;;;2.08;;
55483;SDS011;41345;51.704;5.146;2023-06-14T19:15:27;2.95;;;1.70;;
55483;SDS011;41345;51.704;5.146;2023-06-14T19:20:27;3.17;;;1.80;;
55483;SDS011;41345;51.704;5.146;2023-06-14T19:25:28;4.45;;;1.98;;
55483;SDS011;41345;51.704;5.146;2023-06-14T19:30:28;5.03;;;1.83;;
55483;SDS011;41345;51.704;5.146;2023-06-14T19:35:29;5.03;;;1.95;;
55483;SDS011;41345;51.704;5.146;2023-06-14T19:40:29;4.95;;;1.80;;
55483;SDS011;41345;51.704;5.146;2023-06-14T19:45:30;6.33;;;2.00;;
55483;SDS011;41345;51.704;5.146;2023-06-14T19:50:30;3.35;;;1.92;;
55483;SDS011;41345;51.704;5.146;2023-06-14T19:55:30;4.15;;;2.88;;
55483;SDS011;41345;51.704;5.146;2023-06-14T20:00:31;4.50;;;2.17;;
55483;SDS011;41345;51.704;5.146;2023-06-14T20:05:32;5.53;;;1.90;;
55483;SDS011;41345;51.704;5.146;2023-06-14T20:10:34;6.57;;;2.20;;
55483;SDS011;41345;51.704;5.146;2023-06-14T20:15:34;4.27;;;1.90;;
55483;SDS011;41345;51.704;5.146;2023-06-14T20:20:34;6.95;;;2.42;;
55483;SDS011;41345;51.704;5.146;2023-06-14T20:25:35;8.00;;;2.20;;
55483;SDS011;41345;51.704;5.146;2023-06-14T20:30:35;4.50;;;2.03;;
55483;SDS011;41345;51.704;5.146;2023-06-14T20:35:35;6.10;;;2.42;;
55483;SDS011;41345;51.704;5.146;2023-06-14T20:40:36;9.85;;;2.95;;
55483;SDS011;41345;51.704;5.146;2023-06-14T20:45:37;6.95;;;3.20;;
55483;SDS011;41345;51.704;5.146;2023-06-14T20:50:38;7.90;;;2.80;;
55483;SDS011;41345;51.704;5.146;2023-06-14T20:55:38;6.67;;;2.57;;
55483;SDS011;41345;51.704;5.146;2023-06-14T21:00:38;7.90;;;2.57;;
55483;SDS011;41345;51.704;5.146;2023-06-14T21:05:42;8.07;;;2.65;;
55483;SDS011;41345;51.704;5.146;2023-06-14T21:10:42;6.37;;;2.90;;
55483;SDS011;41345;51.704;5.146;2023-06-14T21:15:42;7.47;;;2.88;;
55483;SDS011;41345;51.704;5.146;2023-06-14T21:20:43;9.57;;;2.87;;
55483;SDS011;41345;51.704;5.146;2023-06-14T21:25:43;8.15;;;2.65;;
55483;SDS011;41345;51.704;5.146;2023-06-14T21:30:44;8.53;;;3.13;;
55483;SDS011;41345;51.704;5.146;2023-06-14T21:35:44;9.40;;;3.80;;
55483;SDS011;41345;51.704;5.146;2023-06-14T21:40:44;8.02;;;3.30;;
55483;SDS011;41345;51.704;5.146;2023-06-14T21:45:45;11.30;;;3.70;;
55483;SDS011;41345;51.704;5.146;2023-06-14T21:50:45;9.32;;;3.50;;
55483;SDS011;41345;51.704;5.146;2023-06-14T21:55:45;6.25;;;3.17;;
55483;SDS011;41345;51.704;5.146;2023-06-14T22:00:45;6.20;;;3.40;;
55483;SDS011;41345;51.704;5.146;2023-06-14T22:05:46;5.47;;;2.97;;
55483;SDS011;41345;51.704;5.146;2023-06-14T22:10:46;5.72;;;3.10;;
55483;SDS011;41345;51.704;5.146;2023-06-14T22:15:49;6.60;;;3.75;;
55483;SDS011;41345;51.704;5.146;2023-06-14T22:20:50;7.00;;;3.40;;
55483;SDS011;41345;51.704;5.146;2023-06-14T22:25:51;10.70;;;3.85;;
55483;SDS011;41345;51.704;5.146;2023-06-14T22:30:51;8.75;;;3.97;;
55483;SDS011;41345;51.704;5.146;2023-06-14T22:35:57;6.25;;;3.55;;
55483;SDS011;41345;51.704;5.146;2023-06-14T22:40:57;9.52;;;4.35;;
55483;SDS011;41345;51.704;5.146;2023-06-14T22:45:58;7.60;;;4.03;;
55483;SDS011;41345;51.704;5.146;2023-06-14T22:50:58;10.07;;;4.63;;
55483;SDS011;41345;51.704;5.146;2023-06-14T22:55:58;10.40;;;4.65;;
55483;SDS011;41345;51.704;5.146;2023-06-14T23:00:59;9.00;;;4.55;;
55483;SDS011;41345;51.704;5.146;2023-06-14T23:06:01;7.43;;;3.85;;
55483;SDS011;41345;51.704;5.146;2023-06-14T23:11:03;7.40;;;4.30;;
55483;SDS011;41345;51.704;5.146;2023-06-14T23:16:03;10.20;;;4.60;;
55483;SDS011;41345;51.704;5.146;2023-06-14T23:21:07;7.40;;;4.25;;
55483;SDS011;41345;51.704;5.146;2023-06-14T23:26:11;8.20;;;4.63;;
55483;SDS011;41345;51.704;5.146;2023-06-14T23:31:12;7.22;;;4.45;;
55483;SDS011;41345;51.704;5.146;2023-06-14T23:36:13;7.28;;;4.07;;
55483;SDS011;41345;51.704;5.146;2023-06-14T23:41:14;6.35;;;4.30;;
55483;SDS011;41345;51.704;5.146;2023-06-14T23:46:17;7.70;;;4.05;;
55483;SDS011;41345;51.704;5.146;2023-06-14T23:51:18;6.70;;;4.47;;
55483;SDS011;41345;51.704;5.146;2023-06-14T23:56:18;8.30;;;4.15;;
